Time;durP1;ratioP1;P1;durP2;ratioP2;P2;SDS_P1;SDS_P2;PMS_P1;PMS_P2;Temp;Humidity;BMP_temperature;BMP_pressure;BME280_temperature;BME280_humidity;BME280_pressure;Samples;Min_cycle;Max_cycle;Signal;HPM_P1;HPM_P2
2022/08/09 00:01:47;;;;;;;7.63;4.28;;;;;;;17.80;59.06;100173.34;5071770;28;20060;-56
2022/08/09 00:04:19;;;;;;;8.55;4.78;;;;;;;17.75;59.34;100173.31;5071541;28;20480;-57
2022/08/09 00:06:44;;;;;;;12.05;4.60;;;;;;;17.75;58.93;100165.16;5071820;28;20037;-56
2022/08/09 00:09:10;;;;;;;7.63;4.38;;;;;;;17.76;59.03;100169.50;5070281;28;20089;-57
2022/08/09 00:11:36;;;;;;;7.47;4.25;;;;;;;17.75;59.21;100172.50;5071749;28;20024;-56
2022/08/09 00:14:02;;;;;;;8.90;4.90;;;;;;;17.67;59.51;100171.94;5071739;28;20104;-56
2022/08/09 00:16:27;;;;;;;9.20;4.50;;;;;;;17.62;59.64;100168.38;5071485;28;20453;-56
2022/08/09 00:18:53;;;;;;;8.02;4.78;;;;;;;17.61;59.80;100174.88;5069781;28;20036;-57
2022/08/09 00:21:18;;;;;;;10.80;4.45;;;;;;;17.63;60.15;100170.00;5075243;28;20037;-56
2022/08/09 00:23:44;;;;;;;9.82;4.75;;;;;;;17.58;59.87;100172.72;5076351;28;20028;-56
2022/08/09 00:26:10;;;;;;;7.82;4.55;;;;;;;17.60;59.87;100165.13;5070372;28;20076;-56
2022/08/09 00:28:36;;;;;;;9.05;5.00;;;;;;;17.54;60.17;100171.59;5071544;28;20024;-57
2022/08/09 00:31:01;;;;;;;9.45;4.57;;;;;;;17.43;60.39;100168.84;5071754;28;20058;-58
2022/08/09 00:33:27;;;;;;;9.05;4.70;;;;;;;17.41;60.52;100165.59;5071124;28;20145;-56
2022/08/09 00:35:53;;;;;;;8.43;4.75;;;;;;;17.42;60.67;100163.69;5071394;28;20486;-56
2022/08/09 00:38:19;;;;;;;8.50;4.65;;;;;;;17.48;60.38;100167.25;5071889;28;20103;-55
2022/08/09 00:40:45;;;;;;;13.10;5.07;;;;;;;17.41;60.53;100167.47;5071344;28;20382;-55
2022/08/09 00:43:10;;;;;;;11.27;4.80;;;;;;;17.36;60.93;100164.75;5070452;28;20028;-55
2022/08/09 00:45:36;;;;;;;11.13;4.70;;;;;;;17.32;61.25;100163.66;5071690;28;20024;-57
2022/08/09 00:48:02;;;;;;;7.40;4.90;;;;;;;17.28;61.27;100152.53;5071440;28;20047;-55
2022/08/09 00:50:27;;;;;;;8.00;4.50;;;;;;;17.31;61.23;100162.84;5071321;28;20063;-55
2022/08/09 00:52:53;;;;;;;7.53;4.60;;;;;;;17.31;61.01;100160.13;5074626;28;20067;-55
2022/08/09 00:55:18;;;;;;;8.80;4.60;;;;;;;17.29;61.12;100162.28;5073761;28;20024;-56
2022/08/09 00:57:44;;;;;;;12.75;5.72;;;;;;;17.26;61.41;100162.81;5075072;28;20491;-57
2022/08/09 01:00:11;;;;;;;10.40;5.13;;;;;;;17.21;61.80;100158.19;5074834;28;20086;-56
2022/08/09 01:02:38;;;;;;;7.43;4.78;;;;;;;17.10;62.25;100161.94;5074823;28;20035;-57
2022/08/09 01:05:19;;;;;;;14.50;4.75;;;;;;;17.11;62.42;100162.75;5077938;28;20040;-55
2022/08/09 01:07:59;;;;;;;10.70;5.05;;;;;;;17.04;62.46;100152.94;5073809;28;20031;-55
2022/08/09 01:10:44;;;;;;;13.27;5.10;;;;;;;16.98;62.72;100159.41;5074822;28;20031;-56
2022/08/09 01:13:39;;;;;;;13.70;5.00;;;;;;;17.04;62.62;100155.66;5075376;28;20040;-56
2022/08/09 01:16:05;;;;;;;13.95;5.53;;;;;;;17.09;62.45;100149.44;5073615;28;20056;-56
2022/08/09 01:18:30;;;;;;;7.38;5.03;;;;;;;16.98;62.60;100147.78;5072951;28;20569;-54
2022/08/09 01:21:27;;;;;;;13.93;4.95;;;;;;;17.00;62.61;100151.84;5074186;28;20033;-56
2022/08/09 01:24:01;;;;;;;9.00;4.70;;;;;;;16.96;62.52;100150.75;5074370;28;20029;-55
2022/08/09 01:26:51;;;;;;;15.68;4.97;;;;;;;16.97;63.04;100155.09;5057040;28;20036;-56
2022/08/09 01:29:18;;;;;;;12.27;5.47;;;;;;;16.92;63.06;100162.34;5074397;28;20467;-55
2022/08/09 01:31:44;;;;;;;10.52;4.65;;;;;;;16.90;63.19;100157.22;5074406;28;20483;-56
2022/08/09 01:34:11;;;;;;;17.80;5.50;;;;;;;16.88;63.17;100159.38;5073990;28;20032;-56
2022/08/09 01:36:36;;;;;;;16.25;5.60;;;;;;;16.79;63.44;100150.09;5056558;28;20020;-55
2022/08/09 01:39:02;;;;;;;11.25;4.85;;;;;;;16.65;64.14;100155.13;5073610;28;20028;-56
2022/08/09 01:41:28;;;;;;;10.95;5.13;;;;;;;16.63;64.32;100151.06;5074534;28;20167;-56
2022/08/09 01:43:55;;;;;;;14.85;5.35;;;;;;;16.63;64.45;100159.16;5072757;28;20259;-56
2022/08/09 01:46:22;;;;;;;13.95;5.18;;;;;;;16.68;64.22;100164.63;5073246;28;20048;-56
2022/08/09 01:48:48;;;;;;;9.50;4.88;;;;;;;16.56;64.63;100157.47;5073307;28;20074;-56
2022/08/09 01:51:13;;;;;;;9.70;5.35;;;;;;;16.50;64.69;100161.25;5072588;28;20032;-54
2022/08/09 01:53:39;;;;;;;11.85;4.93;;;;;;;16.50;64.82;100155.81;5060980;28;20020;-55
2022/08/09 01:56:04;;;;;;;10.45;5.22;;;;;;;16.44;64.99;100154.13;5072398;28;20096;-55
2022/08/09 01:58:30;;;;;;;8.70;5.20;;;;;;;16.44;65.15;100150.63;5072137;28;20032;-56
2022/08/09 02:00:56;;;;;;;17.35;5.15;;;;;;;16.41;65.61;100154.66;5073418;28;20056;-56
2022/08/09 02:03:21;;;;;;;11.43;5.18;;;;;;;16.39;65.41;100162.22;5043548;28;20032;-56
2022/08/09 02:05:47;;;;;;;15.57;6.03;;;;;;;16.34;65.62;100149.47;5073778;28;20074;-56
2022/08/09 02:08:14;;;;;;;13.48;6.00;;;;;;;16.29;66.01;100157.53;5056113;28;20032;-56
2022/08/09 02:10:41;;;;;;;8.73;5.45;;;;;;;16.24;66.31;100151.28;5073592;28;20438;-53
2022/08/09 02:13:07;;;;;;;10.02;5.57;;;;;;;16.24;66.47;100149.38;5072929;28;20020;-55
2022/08/09 02:15:35;;;;;;;11.05;5.45;;;;;;;16.24;66.37;100159.38;5072348;28;20024;-57
2022/08/09 02:18:01;;;;;;;14.70;6.20;;;;;;;16.22;66.40;100156.94;5071496;28;20470;-54
2022/08/09 02:20:27;;;;;;;12.15;5.22;;;;;;;16.18;66.47;100156.63;5072203;28;20044;-55
2022/08/09 02:23:00;;;;;;;14.18;5.43;;;;;;;16.14;66.71;100160.91;5055302;28;20028;-56
2022/08/09 02:25:27;;;;;;;13.13;5.95;;;;;;;16.14;66.84;100163.63;5078420;28;20024;-56
2022/08/09 02:27:58;;;;;;;11.35;4.95;;;;;;;16.11;67.04;100157.91;5080157;28;20043;-56
2022/08/09 02:30:23;;;;;;;11.07;5.57;;;;;;;16.09;67.00;100155.47;5057386;28;20028;-56
2022/08/09 02:32:49;;;;;;;8.90;5.90;;;;;;;16.08;67.29;100166.56;5057238;28;20450;-56
2022/08/09 02:35:20;;;;;;;10.90;5.57;;;;;;;16.01;67.52;100155.94;5055272;28;20028;-56
2022/08/09 02:37:46;;;;;;;10.68;5.78;;;;;;;15.98;67.82;100167.28;5073179;28;20024;-55
2022/08/09 02:40:13;;;;;;;12.40;6.13;;;;;;;16.01;67.42;100166.75;5071822;28;20073;-57
2022/08/09 02:42:40;;;;;;;9.88;5.50;;;;;;;16.01;67.51;100164.03;5071453;28;20024;-56
2022/08/09 02:45:08;;;;;;;10.32;6.38;;;;;;;16.01;67.70;100160.53;5071143;28;20363;-56
2022/08/09 02:47:33;;;;;;;10.65;6.40;;;;;;;15.94;67.79;100163.44;5071525;28;20043;-55
2022/08/09 02:50:04;;;;;;;15.30;5.60;;;;;;;15.83;68.17;100167.13;5054098;28;20020;-57
2022/08/09 02:52:36;;;;;;;16.38;6.75;;;;;;;15.76;68.63;100169.19;5071456;28;20048;-56
2022/08/09 02:55:02;;;;;;;12.32;5.93;;;;;;;15.73;68.96;100168.63;5073667;28;20036;-56
2022/08/09 02:57:28;;;;;;;10.23;5.88;;;;;;;15.76;68.97;100174.59;5054628;28;20025;-55
2022/08/09 02:59:53;;;;;;;16.90;6.47;;;;;;;15.75;68.75;100168.38;5071560;28;20028;-56
2022/08/09 03:02:19;;;;;;;13.95;6.35;;;;;;;15.78;68.96;100164.34;5054678;28;20360;-56
2022/08/09 03:04:45;;;;;;;11.50;6.50;;;;;;;15.73;68.96;100168.63;5077600;28;20041;-56
2022/08/09 03:07:10;;;;;;;12.45;6.07;;;;;;;15.65;69.33;100163.66;5071265;28;20804;-57
2022/08/09 03:09:36;;;;;;;12.70;6.32;;;;;;;15.73;69.22;100168.63;5054393;28;20032;-56
2022/08/09 03:12:01;;;;;;;15.05;6.60;;;;;;;15.65;69.44;100162.81;5071058;28;20028;-56
2022/08/09 03:14:28;;;;;;;13.27;5.95;;;;;;;15.59;69.70;100158.44;5070903;28;20021;-56
2022/08/09 03:16:53;;;;;;;15.25;6.45;;;;;;;15.60;70.07;100165.44;5054920;28;20059;-57
2022/08/09 03:19:19;;;;;;;14.00;5.97;;;;;;;15.52;70.36;100164.84;5070625;28;20028;-56
2022/08/09 03:21:44;;;;;;;9.32;6.22;;;;;;;15.52;70.23;100162.16;5070780;28;20475;-56
2022/08/09 03:24:09;;;;;;;14.38;6.60;;;;;;;15.52;70.59;100158.63;5071172;28;20474;-56
2022/08/09 03:26:35;;;;;;;10.65;6.43;;;;;;;15.50;70.88;100158.88;5070842;28;20360;-56
2022/08/09 03:29:00;;;;;;;12.98;6.18;;;;;;;15.50;70.59;100160.75;5070424;28;20024;-55
2022/08/09 03:31:26;;;;;;;14.73;6.80;;;;;;;15.41;70.89;100156.88;5071066;28;20086;-57
2022/08/09 03:33:52;;;;;;;11.70;6.45;;;;;;;15.37;71.22;100161.13;5070471;28;20020;-56
2022/08/09 03:36:17;;;;;;;11.43;6.45;;;;;;;15.41;71.05;100164.97;5070666;28;20028;-54
2022/08/09 03:38:42;;;;;;;17.17;7.25;;;;;;;15.36;71.48;100164.91;5070874;28;20043;-56
2022/08/09 03:41:08;;;;;;;16.38;6.95;;;;;;;15.37;71.50;100166.53;5070866;28;20031;-56
2022/08/09 03:43:34;;;;;;;13.32;6.25;;;;;;;15.42;71.36;100164.72;5072658;28;20032;-56
2022/08/09 03:46:00;;;;;;;15.27;6.43;;;;;;;15.38;71.47;100170.88;5074681;28;20435;-56
2022/08/09 03:48:26;;;;;;;12.77;6.93;;;;;;;15.32;71.62;100165.44;5071436;28;20026;-56
2022/08/09 03:50:52;;;;;;;14.68;7.03;;;;;;;15.30;71.96;100178.34;5054207;28;20024;-56
2022/08/09 03:53:18;;;;;;;10.65;6.53;;;;;;;15.27;71.92;100173.44;5071721;28;20028;-56
2022/08/09 03:55:43;;;;;;;16.10;7.50;;;;;;;15.21;72.24;100177.16;5071980;28;20047;-55
2022/08/09 03:58:09;;;;;;;17.70;7.38;;;;;;;15.21;72.28;100185.25;5053694;28;20032;-55
2022/08/09 04:00:37;;;;;;;14.93;7.50;;;;;;;15.18;72.46;100185.75;5054663;28;20467;-57
2022/08/09 04:03:03;;;;;;;19.33;7.85;;;;;;;15.15;72.89;100191.66;5070204;28;20028;-56
2022/08/09 04:05:28;;;;;;;14.63;7.15;;;;;;;15.14;72.86;100187.31;5070391;28;20036;-56
2022/08/09 04:07:54;;;;;;;18.80;7.43;;;;;;;15.14;72.96;100187.31;5071430;28;20025;-56
2022/08/09 04:10:23;;;;;;;11.35;7.80;;;;;;;15.13;72.72;100188.38;5071246;28;20039;-56
2022/08/09 04:12:49;;;;;;;13.57;7.65;;;;;;;15.15;73.17;100197.06;5080857;28;20423;-56
2022/08/09 04:15:15;;;;;;;19.90;8.32;;;;;;;15.08;73.03;100196.41;5071628;28;20037;-56
2022/08/09 04:17:41;;;;;;;13.63;7.90;;;;;;;15.10;73.34;100196.97;5071379;28;20090;-55
2022/08/09 04:20:07;;;;;;;18.88;8.10;;;;;;;15.12;73.37;100197.53;5059043;28;20027;-56
2022/08/09 04:22:33;;;;;;;17.35;8.32;;;;;;;15.22;72.82;100207.66;5070245;28;20506;-56
2022/08/09 04:24:59;;;;;;;21.95;7.90;;;;;;;15.28;72.53;100207.50;5070443;28;20032;-56
2022/08/09 04:27:24;;;;;;;20.45;8.40;;;;;;;15.91;70.48;100210.72;5072865;28;20060;-56
2022/08/09 04:29:52;;;;;;;16.08;7.85;;;;;;;16.73;67.18;100210.66;5083312;28;20485;-56
2022/08/09 04:32:18;;;;;;;24.30;7.88;;;;;;;17.36;64.69;100214.34;5078201;28;20024;-56
2022/08/09 04:34:43;;;;;;;14.52;8.38;;;;;;;17.69;63.45;100212.31;5077555;28;20028;-57
2022/08/09 04:37:09;;;;;;;20.58;8.15;;;;;;;18.56;60.72;100220.66;5075313;28;20028;-58
2022/08/09 04:39:34;;;;;;;22.13;7.63;;;;;;;18.72;59.83;100219.59;5075256;28;20035;-55
2022/08/09 04:41:59;;;;;;;18.30;8.15;;;;;;;19.24;58.15;100219.53;5080364;28;20100;-55
2022/08/09 04:44:25;;;;;;;19.92;7.35;;;;;;;20.28;55.51;100222.34;5075005;28;20038;-55
2022/08/09 04:46:51;;;;;;;17.98;8.43;;;;;;;20.88;53.24;100236.59;5075023;28;20115;-56
2022/08/09 04:49:16;;;;;;;19.98;8.85;;;;;;;21.07;52.29;100233.16;5073273;28;20043;-56
2022/08/09 04:51:42;;;;;;;18.70;7.90;;;;;;;21.45;51.78;100231.41;5074824;28;20064;-55
2022/08/09 04:54:07;;;;;;;18.98;7.78;;;;;;;22.12;49.47;100236.81;5076563;28;20090;-56
2022/08/09 04:56:33;;;;;;;20.98;8.10;;;;;;;22.61;47.98;100242.94;5075113;28;20104;-55
2022/08/09 04:58:58;;;;;;;33.55;8.25;;;;;;;22.36;48.59;100241.41;5075168;28;20047;-56
2022/08/09 05:01:24;;;;;;;27.52;8.70;;;;;;;23.14;47.25;100239.88;5075496;28;20044;-55
2022/08/09 05:03:49;;;;;;;24.00;8.65;;;;;;;22.26;48.68;100247.03;5072668;28;20047;-56
2022/08/09 05:06:15;;;;;;;31.00;8.68;;;;;;;22.49;48.25;100246.16;5074956;28;20029;-55
2022/08/09 05:08:40;;;;;;;28.48;8.63;;;;;;;23.74;45.40;100247.22;5074484;28;20016;-56
2022/08/09 05:11:06;;;;;;;39.20;9.10;;;;;;;23.12;47.05;100255.78;5074774;28;20013;-55
2022/08/09 05:13:31;;;;;;;32.10;9.15;;;;;;;24.11;44.18;100250.78;5082409;28;20025;-56
2022/08/09 05:15:56;;;;;;;30.77;8.73;;;;;;;24.25;43.86;100251.56;5074580;28;20016;-55
2022/08/09 05:18:23;;;;;;;31.95;9.20;;;;;;;24.09;44.48;100258.53;5074220;28;20029;-55
2022/08/09 05:20:49;;;;;;;27.90;8.15;;;;;;;24.52;43.48;100260.84;5074833;28;20386;-56
2022/08/09 05:23:14;;;;;;;39.08;8.93;;;;;;;25.03;42.84;100261.50;5076021;28;20016;-56
2022/08/09 05:25:40;;;;;;;39.58;8.88;;;;;;;24.60;43.18;100262.03;5074495;28;20459;-56
2022/08/09 05:28:05;;;;;;;30.00;8.95;;;;;;;23.01;46.54;100262.50;5074004;28;20017;-55
2022/08/09 05:30:31;;;;;;;39.05;9.43;;;;;;;24.64;43.68;100263.84;5074670;28;20021;-55
2022/08/09 05:32:56;;;;;;;43.30;8.80;;;;;;;23.22;46.06;100268.44;5073196;28;20467;-56
2022/08/09 05:35:22;;;;;;;43.22;10.07;;;;;;;22.86;47.19;100266.28;5074158;28;20059;-56
2022/08/09 05:37:47;;;;;;;43.50;10.27;;;;;;;22.50;47.97;100269.59;5074564;28;20174;-55
2022/08/09 05:40:13;;;;;;;39.60;9.02;;;;;;;24.48;43.59;100270.78;5074422;28;20352;-56
2022/08/09 05:42:38;;;;;;;29.10;8.43;;;;;;;22.94;46.97;100270.25;5075750;28;20137;-56
2022/08/09 05:45:04;;;;;;;34.33;9.30;;;;;;;22.30;48.94;100270.72;5074128;28;20028;-55
2022/08/09 05:47:30;;;;;;;26.55;9.15;;;;;;;21.79;49.77;100278.75;5073801;28;20110;-56
2022/08/09 05:49:55;;;;;;;30.67;8.65;;;;;;;23.43;46.01;100275.13;5073438;28;20500;-56
2022/08/09 05:52:21;;;;;;;28.35;8.30;;;;;;;23.44;46.71;100274.03;5075528;28;20024;-56
2022/08/09 05:54:46;;;;;;;23.52;8.02;;;;;;;23.02;46.93;100280.56;5077385;28;20041;-55
2022/08/09 05:57:11;;;;;;;22.00;7.57;;;;;;;23.79;45.38;100277.22;5073931;28;20432;-55
2022/08/09 05:59:37;;;;;;;19.60;7.75;;;;;;;22.93;47.44;100277.66;5073598;28;20036;-56
2022/08/09 06:02:02;;;;;;;24.58;9.27;;;;;;;22.43;48.00;100282.81;5055760;28;20483;-55
2022/08/09 06:04:28;;;;;;;27.20;8.23;;;;;;;23.30;46.14;100286.88;5071625;28;20514;-56
2022/08/09 06:06:53;;;;;;;23.30;8.90;;;;;;;23.31;46.48;100282.22;5073462;28;20021;-56
2022/08/09 06:09:19;;;;;;;24.85;8.00;;;;;;;25.63;41.76;100293.13;5073456;28;20029;-56
2022/08/09 06:11:44;;;;;;;30.80;8.10;;;;;;;25.24;42.25;100292.00;5074215;28;20150;-55
2022/08/09 06:14:10;;;;;;;27.05;7.20;;;;;;;25.69;41.45;100291.84;5075675;28;20024;-56
2022/08/09 06:16:35;;;;;;;20.38;7.35;;;;;;;27.75;38.31;100299.50;5073425;28;20027;-56
2022/08/09 06:19:01;;;;;;;26.08;7.80;;;;;;;24.95;41.65;100291.28;5071294;28;20064;-56
2022/08/09 06:21:26;;;;;;;42.58;8.20;;;;;;;24.60;43.50;100289.44;5073273;28;20029;-56
2022/08/09 06:23:54;;;;;;;37.83;8.15;;;;;;;24.15;44.13;100287.41;5073127;28;20050;-55
2022/08/09 06:26:20;;;;;;;24.65;7.75;;;;;;;25.94;40.97;100293.09;5073363;28;20036;-56
2022/08/09 06:28:45;;;;;;;19.23;7.60;;;;;;;25.69;41.12;100291.84;5073278;28;20028;-56
2022/08/09 06:31:10;;;;;;;27.38;7.10;;;;;;;26.91;38.84;100292.84;5078069;28;20043;-56
2022/08/09 06:33:36;;;;;;;16.13;6.45;;;;;;;26.14;40.28;100291.69;5076437;28;20031;-56
2022/08/09 06:36:02;;;;;;;27.05;7.10;;;;;;;26.34;39.56;100285.53;5081076;28;20107;-56
2022/08/09 06:38:27;;;;;;;26.60;7.00;;;;;;;26.89;38.58;100295.91;5072969;28;20040;-56
2022/08/09 06:40:53;;;;;;;24.92;7.25;;;;;;;27.50;37.82;100292.19;5073548;28;20043;-56
2022/08/09 06:43:18;;;;;;;23.10;7.25;;;;;;;26.14;39.96;100297.16;5079683;28;20051;-57
2022/08/09 06:45:44;;;;;;;55.65;8.48;;;;;;;26.74;39.32;100304.66;5081984;28;20035;-56
2022/08/09 06:48:11;;;;;;;28.23;7.88;;;;;;;28.49;36.63;100300.06;5072398;28;20406;-57
2022/08/09 06:50:36;;;;;;;27.02;8.05;;;;;;;26.90;38.56;100304.94;5072050;28;20090;-57
2022/08/09 06:53:03;;;;;;;14.20;6.88;;;;;;;29.08;34.94;100298.22;5072640;28;20467;-57
2022/08/09 06:55:31;;;;;;;28.15;7.85;;;;;;;28.46;36.21;100300.75;5072689;28;20064;-57
2022/08/09 06:57:57;;;;;;;19.55;7.18;;;;;;;27.25;37.79;100294.69;5072626;28;20379;-57
2022/08/09 07:00:23;;;;;;;24.55;7.95;;;;;;;27.29;37.51;100303.13;5071483;28;20051;-57
2022/08/09 07:02:50;;;;;;;26.40;7.63;;;;;;;27.77;37.03;100301.13;5072671;28;20102;-57
2022/08/09 07:05:15;;;;;;;27.92;7.00;;;;;;;29.46;34.72;100303.50;5072349;28;20048;-57
2022/08/09 07:07:41;;;;;;;24.60;7.13;;;;;;;28.45;35.51;100299.13;5072606;28;20033;-57
2022/08/09 07:10:06;;;;;;;35.88;6.80;;;;;;;27.43;37.74;100297.38;5071976;28;20082;-56
2022/08/09 07:12:32;;;;;;;22.48;6.63;;;;;;;29.09;35.22;100310.91;5072320;28;20024;-57
2022/08/09 07:14:57;;;;;;;29.20;7.25;;;;;;;28.65;35.41;100299.44;5072330;28;20039;-56
2022/08/09 07:17:23;;;;;;;21.98;6.97;;;;;;;29.12;34.54;100301.94;5072379;28;20032;-56
2022/08/09 07:19:49;;;;;;;17.85;6.50;;;;;;;28.86;34.94;100297.47;5070363;28;20491;-56
2022/08/09 07:22:14;;;;;;;22.80;6.75;;;;;;;29.97;33.62;100300.41;5071191;28;20071;-57
2022/08/09 07:24:40;;;;;;;30.90;7.07;;;;;;;30.43;32.62;100301.00;5074946;28;20020;-57
2022/08/09 07:27:05;;;;;;;20.70;7.05;;;;;;;27.81;35.66;100302.06;5073823;28;20028;-56
2022/08/09 07:29:30;;;;;;;31.33;7.40;;;;;;;28.44;35.55;100303.00;5072013;28;20470;-56
2022/08/09 07:31:58;;;;;;;21.80;7.30;;;;;;;28.82;34.59;100307.56;5071935;28;20024;-56
2022/08/09 07:34:23;;;;;;;23.00;6.80;;;;;;;27.60;35.73;100304.78;5070593;28;20071;-56
2022/08/09 07:36:49;;;;;;;25.98;7.05;;;;;;;26.52;38.21;100313.84;5071805;28;20024;-56
2022/08/09 07:39:14;;;;;;;27.83;7.22;;;;;;;28.66;35.23;100296.34;5077445;28;20032;-56
2022/08/09 07:41:40;;;;;;;16.65;6.18;;;;;;;27.20;37.43;100305.06;5071949;28;20062;-56
2022/08/09 07:44:07;;;;;;;18.17;6.38;;;;;;;28.00;36.03;100305.22;5071754;28;20031;-55
2022/08/09 07:46:32;;;;;;;21.00;6.63;;;;;;;28.96;34.29;100296.25;5076221;28;20031;-56
2022/08/09 07:48:58;;;;;;;25.35;6.82;;;;;;;29.11;33.68;100311.38;5071202;28;20024;-55
2022/08/09 07:51:23;;;;;;;25.25;7.05;;;;;;;29.12;34.01;100293.66;5071671;28;20032;-56
2022/08/09 07:53:50;;;;;;;40.45;7.60;;;;;;;28.83;35.04;100300.91;5073419;28;20086;-56
2022/08/09 07:56:15;;;;;;;38.20;7.50;;;;;;;28.86;34.31;100297.47;5071749;28;20036;-56
2022/08/09 07:58:41;;;;;;;35.17;7.25;;;;;;;28.38;34.51;100298.81;5071724;28;20028;-56
2022/08/09 08:01:06;;;;;;;29.80;6.78;;;;;;;29.46;33.87;100301.53;5072202;28;20019;-56
2022/08/09 08:03:32;;;;;;;27.17;6.72;;;;;;;29.30;34.64;100299.78;5075224;28;20032;-57
2022/08/09 08:05:57;;;;;;;23.58;6.97;;;;;;;27.30;36.23;100311.03;5075801;28;20402;-56
2022/08/09 08:08:23;;;;;;;33.83;7.88;;;;;;;26.29;37.72;100304.94;5075636;28;20033;-56
2022/08/09 08:10:49;;;;;;;19.92;6.20;;;;;;;26.01;37.04;100305.22;5076425;28;20485;-54
2022/08/09 08:13:14;;;;;;;18.00;7.00;;;;;;;25.19;39.47;100298.41;5075779;28;20043;-55
2022/08/09 08:15:40;;;;;;;16.23;5.95;;;;;;;24.82;39.32;100299.59;5075432;28;20364;-55
2022/08/09 08:18:05;;;;;;;20.15;6.50;;;;;;;26.95;36.59;100292.97;5076146;28;20036;-55
2022/08/09 08:20:31;;;;;;;14.60;5.53;;;;;;;26.19;36.31;100294.25;5075507;28;20028;-55
2022/08/09 08:22:57;;;;;;;16.77;6.15;;;;;;;25.32;38.01;100286.53;5076808;28;20040;-55
2022/08/09 08:25:23;;;;;;;23.50;6.13;;;;;;;25.94;37.49;100291.16;5083113;28;20094;-55
2022/08/09 08:27:48;;;;;;;23.25;6.70;;;;;;;26.59;37.66;100288.66;5075507;28;20395;-55
2022/08/09 08:30:16;;;;;;;19.73;6.70;;;;;;;27.99;35.33;100291.81;5075346;28;20047;-55
2022/08/09 08:32:42;;;;;;;23.63;6.80;;;;;;;27.16;35.83;100284.81;5074991;28;20024;-55
2022/08/09 08:35:07;;;;;;;27.25;6.53;;;;;;;25.26;38.72;100297.94;5075042;28;20467;-54
2022/08/09 08:37:33;;;;;;;30.17;6.82;;;;;;;26.64;37.01;100283.00;5075412;28;20060;-55
2022/08/09 08:39:59;;;;;;;28.65;7.22;;;;;;;26.44;36.59;100290.72;5075112;28;20060;-55
2022/08/09 08:42:24;;;;;;;21.65;6.05;;;;;;;25.34;38.84;100283.47;5076191;28;20032;-55
2022/08/09 08:44:56;;;;;;;19.17;6.07;;;;;;;26.87;36.66;100289.91;5070337;28;20020;-55
2022/08/09 08:47:21;;;;;;;25.05;6.60;;;;;;;28.06;34.88;100281.88;5075596;28;20066;-55
2022/08/09 08:49:47;;;;;;;28.58;7.38;;;;;;;27.25;36.05;100286.44;5074594;28;20028;-55
2022/08/09 08:52:13;;;;;;;30.80;6.68;;;;;;;28.04;34.07;100281.41;5073930;28;20034;-54
2022/08/09 08:54:39;;;;;;;18.33;6.13;;;;;;;27.89;34.12;100284.75;5057355;28;20486;-55
2022/08/09 08:57:04;;;;;;;22.85;6.65;;;;;;;26.29;37.28;100293.16;5073792;28;20073;-55
2022/08/09 08:59:30;;;;;;;25.88;7.35;;;;;;;27.01;36.39;100286.16;5073518;28;20025;-54
2022/08/09 09:01:55;;;;;;;30.15;6.57;;;;;;;27.47;36.13;100281.84;5073405;28;20466;-55
2022/08/09 09:04:21;;;;;;;25.25;6.32;;;;;;;28.95;33.11;100281.59;5072820;28;20045;-55
2022/08/09 09:06:47;;;;;;;28.58;5.93;;;;;;;29.93;32.36;100282.91;5073703;28;20031;-54
2022/08/09 09:09:13;;;;;;;32.50;6.30;;;;;;;28.33;34.07;100290.75;5074889;28;20020;-55
2022/08/09 09:11:39;;;;;;;15.80;5.55;;;;;;;29.23;32.92;100289.28;5074554;28;20023;-55
2022/08/09 09:14:24;;;;;;;22.63;5.63;;;;;;;28.85;33.60;100290.31;5073127;28;20021;-55
2022/08/09 09:16:50;;;;;;;24.73;6.03;;;;;;;27.60;35.29;100288.25;5073445;28;20047;-55
2022/08/09 09:19:15;;;;;;;21.08;6.28;;;;;;;26.77;36.15;100286.69;5074046;28;20028;-55
2022/08/09 09:22:05;;;;;;;24.60;6.88;;;;;;;28.17;34.85;100282.28;5074363;28;20532;-55
2022/08/09 09:24:33;;;;;;;13.98;6.07;;;;;;;27.78;34.42;100288.97;5074488;28;20024;-55
2022/08/09 09:26:59;;;;;;;31.55;6.32;;;;;;;27.91;35.35;100287.97;5076098;28;20467;-55
2022/08/09 09:29:32;;;;;;;33.97;6.82;;;;;;;27.73;34.63;100285.28;5074135;28;20032;-56
2022/08/09 09:31:58;;;;;;;24.80;6.18;;;;;;;28.95;33.67;100291.84;5075748;28;20024;-55
2022/08/09 09:34:23;;;;;;;15.55;5.65;;;;;;;27.69;34.91;100289.84;5073717;28;20033;-54
2022/08/09 09:36:49;;;;;;;25.45;7.07;;;;;;;26.35;37.56;100284.41;5074154;28;20016;-55
2022/08/09 09:39:16;;;;;;;29.25;6.35;;;;;;;27.54;35.98;100287.63;5072922;28;20036;-55
2022/08/09 09:41:42;;;;;;;19.10;5.78;;;;;;;27.45;35.63;100284.09;5073760;28;20059;-54
2022/08/09 09:44:07;;;;;;;23.50;6.15;;;;;;;27.69;34.40;100292.59;5075943;28;20032;-56
2022/08/09 09:46:34;;;;;;;18.63;6.40;;;;;;;28.38;33.54;100280.34;5077347;28;20029;-56
2022/08/09 09:49:09;;;;;;;25.88;6.13;;;;;;;28.25;34.09;100284.16;5072359;28;20082;-55
2022/08/09 09:51:35;;;;;;;23.17;5.53;;;;;;;27.19;35.11;100285.03;5074441;28;20123;-55
2022/08/09 09:54:14;;;;;;;23.60;6.30;;;;;;;28.73;33.46;100282.00;5073816;28;20016;-55
2022/08/09 09:56:41;;;;;;;18.10;5.75;;;;;;;27.24;35.36;100287.59;5073943;28;20029;-55
2022/08/09 09:59:10;;;;;;;22.00;6.03;;;;;;;27.67;34.73;100289.34;5074108;28;20059;-55
2022/08/09 10:01:36;;;;;;;18.20;6.47;;;;;;;27.20;35.24;100289.38;5073682;28;20394;-55
2022/08/09 10:04:02;;;;;;;23.67;5.40;;;;;;;27.64;34.90;100281.75;5073200;28;20037;-55
2022/08/09 10:06:29;;;;;;;27.58;5.95;;;;;;;27.16;35.17;100288.41;5073420;28;20090;-55
2022/08/09 10:08:59;;;;;;;16.27;5.90;;;;;;;26.73;36.04;100291.22;5073432;28;20104;-55
2022/08/09 10:11:29;;;;;;;13.57;5.43;;;;;;;28.39;33.83;100289.41;5073450;28;20032;-55
2022/08/09 10:13:54;;;;;;;16.92;5.93;;;;;;;28.24;33.68;100287.25;5072273;28;20048;-55
2022/08/09 10:16:33;;;;;;;11.63;5.60;;;;;;;27.56;35.17;100290.88;5069820;28;20037;-56
2022/08/09 10:19:04;;;;;;;12.60;5.57;;;;;;;26.47;36.83;100281.81;5070454;28;20510;-55
2022/08/09 10:21:30;;;;;;;10.50;5.47;;;;;;;27.65;34.93;100286.13;5069480;28;20048;-55
2022/08/09 10:23:56;;;;;;;10.23;5.45;;;;;;;27.88;34.04;100286.69;5073276;28;20607;-55
2022/08/09 10:26:22;;;;;;;13.52;5.38;;;;;;;28.95;32.94;100276.09;5072949;28;20341;-54
2022/08/09 10:28:47;;;;;;;12.18;5.30;;;;;;;29.60;32.48;100272.75;5070483;28;20082;-54
2022/08/09 10:31:13;;;;;;;10.13;5.20;;;;;;;28.23;33.33;100272.69;5076467;28;20471;-55
2022/08/09 10:33:39;;;;;;;9.65;4.72;;;;;;;29.60;31.99;100268.03;5069646;28;20055;-55
2022/08/09 10:36:05;;;;;;;9.13;4.88;;;;;;;28.25;32.50;100266.81;5070741;28;20428;-53
2022/08/09 10:38:30;;;;;;;10.57;5.07;;;;;;;27.91;33.75;100263.19;5069572;28;20056;-54
2022/08/09 10:40:56;;;;;;;13.38;4.78;;;;;;;29.06;32.62;100268.22;5070575;28;20426;-54
2022/08/09 10:43:22;;;;;;;11.35;4.72;;;;;;;28.43;31.73;100273.00;5067069;28;20647;-54
2022/08/09 10:45:48;;;;;;;10.20;4.55;;;;;;;28.53;32.64;100258.81;5077803;28;20026;-55
2022/08/09 10:48:19;;;;;;;11.88;4.55;;;;;;;28.10;32.25;100255.25;5071723;28;20033;-54
2022/08/09 10:53:33;;;;;;;16.38;5.10;;;;;;;29.32;31.04;100256.06;5069177;28;20043;-55
2022/08/09 10:56:17;;;;;;;9.77;4.57;;;;;;;29.27;30.89;100259.84;5070160;28;20118;-54
2022/08/09 10:58:43;;;;;;;8.73;4.30;;;;;;;28.21;32.26;100258.44;5069992;28;20111;-56
2022/08/09 11:01:38;;;;;;;7.85;4.47;;;;;;;29.04;31.50;100254.75;5070431;28;20485;-55
2022/08/09 11:04:19;;;;;;;13.50;4.75;;;;;;;29.92;30.38;100254.47;5073027;28;20097;-54
2022/08/09 11:06:45;;;;;;;11.70;4.50;;;;;;;28.93;31.44;100261.84;5074361;28;20028;-55
2022/08/09 11:09:12;;;;;;;8.88;3.92;;;;;;;29.78;30.15;100256.78;5068573;28;20060;-55
2022/08/09 11:12:03;;;;;;;13.45;5.03;;;;;;;29.46;30.26;100243.53;5070001;28;20027;-56
2022/08/09 11:14:43;;;;;;;7.00;4.47;;;;;;;29.54;30.87;100252.06;5078059;28;20036;-56
2022/08/09 11:17:17;;;;;;;11.52;4.93;;;;;;;28.77;31.85;100249.84;5070890;28;20024;-54
2022/08/09 11:19:49;;;;;;;12.45;4.70;;;;;;;29.86;30.09;100248.38;5086310;28;20470;-56
2022/08/09 11:22:15;;;;;;;9.20;4.60;;;;;;;30.35;29.89;100244.69;5072359;28;20048;-55